Time;durP1;ratioP1;P1;durP2;ratioP2;P2;SDS_P1;SDS_P2;PMS_P1;PMS_P2;Temp;Humidity;BMP_temperature;BMP_pressure;BME280_temperature;BME280_humidity;BME280_pressure;Samples;Min_cycle;Max_cycle;Signal;HPM_P1;HPM_P2
2022/11/24 00:01:52;;;;;;;73.43;51.08;;;15.90;68.70;;;;;;4989771;27;91950;-50
2022/11/24 00:04:18;;;;;;;74.63;50.97;;;15.90;68.70;;;;;;4994883;28;92441;-48
2022/11/24 00:06:44;;;;;;;74.15;51.40;;;15.90;68.70;;;;;;4984238;28;93596;-50
2022/11/24 00:09:10;;;;;;;75.55;50.60;;;15.90;68.60;;;;;;4991363;28;90177;-49
2022/11/24 00:11:36;;;;;;;74.80;51.75;;;15.90;68.70;;;;;;4995807;28;90057;-51
2022/11/24 00:14:03;;;;;;;73.55;50.72;;;15.90;68.70;;;;;;4995480;27;89672;-51
2022/11/24 00:16:31;;;;;;;75.88;51.10;;;15.80;68.70;;;;;;4985917;27;92027;-52
2022/11/24 00:18:59;;;;;;;73.55;51.15;;;15.90;68.70;;;;;;4995470;28;89903;-48
2022/11/24 00:21:26;;;;;;;75.10;50.80;;;15.80;68.70;;;;;;4988664;28;89558;-49
2022/11/24 00:23:52;;;;;;;72.53;50.58;;;15.80;68.50;;;;;;4992130;28;89807;-51
2022/11/24 00:26:20;;;;;;;77.75;51.53;;;15.80;68.70;;;;;;4987500;28;90679;-47
2022/11/24 00:28:48;;;;;;;74.90;51.08;;;15.80;68.60;;;;;;4993763;28;93134;-49
2022/11/24 00:31:14;;;;;;;76.15;51.28;;;15.80;68.60;;;;;;4993347;27;90916;-49
2022/11/24 00:33:39;;;;;;;73.88;51.05;;;15.90;68.70;;;;;;4989387;27;90592;-51
2022/11/24 00:36:05;;;;;;;73.28;50.90;;;15.80;68.40;;;;;;4987531;28;90009;-49
2022/11/24 00:38:31;;;;;;;72.32;50.70;;;15.80;68.40;;;;;;4987716;28;89890;-48
2022/11/24 00:40:56;;;;;;;74.47;50.88;;;15.80;68.50;;;;;;4988506;28;90022;-49
2022/11/24 00:43:22;;;;;;;74.78;51.35;;;15.80;68.60;;;;;;4983425;27;90688;-48
2022/11/24 00:45:48;;;;;;;73.95;51.20;;;15.80;68.70;;;;;;4994974;28;89925;-49
2022/11/24 00:48:13;;;;;;;73.82;51.40;;;15.80;68.60;;;;;;4987469;28;91533;-51
2022/11/24 00:50:39;;;;;;;75.18;51.28;;;15.80;68.60;;;;;;4989825;28;89800;-49
2022/11/24 00:53:05;;;;;;;73.70;51.13;;;15.80;68.40;;;;;;4986704;28;90195;-50
2022/11/24 00:55:30;;;;;;;72.45;50.45;;;15.80;68.40;;;;;;4992881;28;91135;-50
2022/11/24 00:57:56;;;;;;;73.43;50.85;;;15.70;68.40;;;;;;4983994;28;92471;-49
2022/11/24 01:00:21;;;;;;;75.57;51.00;;;15.70;68.50;;;;;;4984920;28;91126;-51
2022/11/24 01:02:47;;;;;;;73.35;51.20;;;15.70;68.40;;;;;;4991693;28;89830;-48
2022/11/24 01:05:13;;;;;;;73.55;51.13;;;15.70;68.40;;;;;;4988777;28;90621;-51
2022/11/24 01:07:38;;;;;;;74.60;50.80;;;15.70;68.30;;;;;;4999911;28;90001;-49
2022/11/24 01:10:04;;;;;;;74.53;50.75;;;15.70;68.40;;;;;;4987293;28;90580;-49
2022/11/24 01:12:31;;;;;;;71.57;50.45;;;15.70;68.30;;;;;;4988145;27;89339;-48
2022/11/24 01:14:57;;;;;;;72.40;50.38;;;15.70;68.40;;;;;;4986167;28;91912;-51
2022/11/24 01:17:23;;;;;;;74.50;50.80;;;15.70;68.40;;;;;;4983304;28;90738;-50
2022/11/24 01:19:49;;;;;;;74.80;51.20;;;15.70;68.40;;;;;;4983146;28;92822;-52
2022/11/24 01:22:15;;;;;;;73.93;51.17;;;15.70;68.40;;;;;;4991522;27;90427;-49
2022/11/24 01:24:41;;;;;;;73.65;50.88;;;15.70;68.30;;;;;;4990484;28;89756;-49
2022/11/24 01:27:06;;;;;;;71.93;51.28;;;15.70;68.40;;;;;;4988668;28;90653;-50
2022/11/24 01:29:32;;;;;;;73.07;50.85;;;15.70;68.30;;;;;;4990585;28;91302;-50
2022/11/24 01:31:58;;;;;;;73.43;50.83;;;15.70;68.30;;;;;;4994411;28;89506;-52
2022/11/24 01:34:24;;;;;;;73.97;50.65;;;15.70;68.40;;;;;;4979926;28;90168;-53
2022/11/24 01:36:49;;;;;;;75.57;50.65;;;15.70;68.40;;;;;;4990293;28;90874;-48
2022/11/24 01:39:15;;;;;;;73.28;50.20;;;15.70;68.40;;;;;;4991017;28;89965;-49
2022/11/24 01:41:41;;;;;;;76.50;51.03;;;15.70;68.30;;;;;;4992137;28;89804;-50
2022/11/24 01:44:24;;;;;;;73.05;50.70;;;15.60;68.30;;;;;;4977259;28;91006;-48
2022/11/24 01:47:35;;;;;;;73.95;50.67;;;15.60;68.30;;;;;;4983249;28;89737;-50
2022/11/24 01:50:03;;;;;;;73.00;50.53;;;15.60;68.20;;;;;;4984573;28;89882;-52
2022/11/24 01:52:37;;;;;;;71.38;51.08;;;15.50;68.30;;;;;;4985166;28;95486;-51
2022/11/24 01:55:08;;;;;;;73.57;50.38;;;15.50;68.30;;;;;;4989416;28;89932;-50
2022/11/24 01:57:47;;;;;;;72.78;50.22;;;15.50;68.40;;;;;;4989597;28;90503;-50
2022/11/24 02:00:14;;;;;;;73.00;50.22;;;15.60;68.30;;;;;;4992342;28;89813;-50
2022/11/24 02:02:42;;;;;;;73.65;49.92;;;15.50;68.30;;;;;;4993484;27;89911;-51
2022/11/24 02:05:24;;;;;;;73.30;50.60;;;15.50;68.30;;;;;;4987403;28;89883;-49
2022/11/24 02:07:52;;;;;;;71.30;50.08;;;15.50;68.40;;;;;;4983895;28;89870;-51
2022/11/24 02:10:18;;;;;;;71.25;50.40;;;15.50;68.50;;;;;;4985975;28;90822;-51
2022/11/24 02:12:49;;;;;;;70.70;50.92;;;15.50;68.30;;;;;;4989300;28;91831;-50
2022/11/24 02:15:16;;;;;;;70.20;50.25;;;15.50;68.30;;;;;;4985802;28;90211;-49
2022/11/24 02:17:42;;;;;;;71.43;50.60;;;15.50;68.40;;;;;;4981370;28;89943;-52
2022/11/24 02:20:10;;;;;;;72.82;50.53;;;15.50;68.40;;;;;;4987838;28;94575;-51
2022/11/24 02:23:04;;;;;;;71.47;50.50;;;15.50;68.40;;;;;;4988598;28;91123;-52
2022/11/24 02:25:34;;;;;;;70.95;50.15;;;15.50;68.40;;;;;;4988856;28;90217;-49
2022/11/24 02:28:04;;;;;;;70.28;50.67;;;15.50;68.40;;;;;;4983223;28;89593;-52
2022/11/24 02:30:30;;;;;;;71.25;50.35;;;15.50;69.20;;;;;;4986418;28;90068;-48
2022/11/24 02:32:56;;;;;;;72.32;50.63;;;15.50;68.50;;;;;;4983106;28;89831;-49
2022/11/24 02:35:22;;;;;;;71.88;50.42;;;15.50;68.60;;;;;;4985521;28;94003;-50
2022/11/24 02:37:48;;;;;;;73.45;50.33;;;15.50;68.50;;;;;;4992405;28;92245;-49
2022/11/24 02:40:15;;;;;;;72.90;49.97;;;15.50;69.30;;;;;;4992529;28;89866;-51
2022/11/24 02:42:44;;;;;;;71.55;50.25;;;15.50;68.50;;;;;;4990029;28;90578;-49
2022/11/24 02:45:11;;;;;;;74.00;50.42;;;15.40;68.50;;;;;;4983436;28;91111;-51
2022/11/24 02:47:37;;;;;;;70.70;50.22;;;15.50;68.50;;;;;;4990999;28;91143;-48
2022/11/24 02:50:03;;;;;;;72.10;50.50;;;15.50;68.50;;;;;;4981116;28;91157;-51
2022/11/24 02:52:29;;;;;;;72.97;50.40;;;15.50;68.40;;;;;;4984189;28;90846;-48
2022/11/24 02:54:54;;;;;;;71.18;50.28;;;15.50;68.60;;;;;;4987380;27;90899;-54
2022/11/24 02:57:22;;;;;;;69.88;49.85;;;15.40;68.40;;;;;;4984206;28;90032;-51
2022/11/24 02:59:47;;;;;;;70.47;50.15;;;15.40;68.50;;;;;;4986110;28;90712;-50
2022/11/24 03:02:13;;;;;;;71.45;50.17;;;15.40;68.40;;;;;;4986550;27;91526;-49
2022/11/24 03:04:39;;;;;;;71.75;50.20;;;15.40;68.40;;;;;;4987678;28;90098;-48
2022/11/24 03:07:05;;;;;;;71.32;50.25;;;15.40;68.60;;;;;;4982935;28;89813;-48
2022/11/24 03:09:30;;;;;;;70.47;50.20;;;15.40;68.50;;;;;;4975788;27;91166;-51
2022/11/24 03:11:56;;;;;;;69.68;49.78;;;15.40;68.50;;;;;;4984305;28;89897;-52
2022/11/24 03:14:22;;;;;;;71.13;50.17;;;15.40;68.50;;;;;;4987761;28;90314;-51
2022/11/24 03:16:47;;;;;;;70.10;49.83;;;15.40;68.50;;;;;;4994079;28;90706;-52
2022/11/24 03:19:13;;;;;;;69.70;50.40;;;15.40;69.30;;;;;;4981560;28;90468;-50
2022/11/24 03:21:38;;;;;;;69.68;50.08;;;15.40;68.40;;;;;;4990350;28;90085;-52
2022/11/24 03:24:04;;;;;;;72.28;50.25;;;15.40;68.40;;;;;;4987628;28;91514;-53
2022/11/24 03:26:32;;;;;;;70.95;50.00;;;15.40;68.60;;;;;;4991172;27;90963;-50
2022/11/24 03:28:58;;;;;;;69.80;50.47;;;15.30;68.50;;;;;;4982201;28;89899;-50
2022/11/24 03:31:24;;;;;;;69.97;50.15;;;15.30;68.50;;;;;;4994667;28;90451;-50
2022/11/24 03:33:49;;;;;;;69.40;49.92;;;15.30;68.50;;;;;;4986174;28;90081;-48
2022/11/24 03:36:15;;;;;;;70.70;50.28;;;15.30;68.50;;;;;;4987670;28;90801;-51
2022/11/24 03:38:41;;;;;;;70.65;50.15;;;15.30;68.50;;;;;;4984765;28;89887;-54
2022/11/24 03:41:07;;;;;;;70.18;49.85;;;15.40;68.60;;;;;;4987407;27;89368;-53
2022/11/24 03:43:32;;;;;;;69.30;49.95;;;15.40;68.50;;;;;;4987210;28;91114;-51
2022/11/24 03:45:58;;;;;;;70.45;49.95;;;15.30;68.50;;;;;;4983719;28;94438;-50
2022/11/24 03:48:24;;;;;;;70.03;49.70;;;15.30;68.50;;;;;;4986360;28;90776;-53
2022/11/24 03:50:58;;;;;;;70.03;49.88;;;15.30;68.50;;;;;;4977582;28;90956;-48
2022/11/24 03:53:25;;;;;;;70.93;49.95;;;15.30;68.50;;;;;;4986998;28;89898;-49
2022/11/24 03:55:51;;;;;;;70.32;49.83;;;15.30;68.50;;;;;;4990787;28;90796;-51
2022/11/24 03:58:16;;;;;;;71.70;50.08;;;15.30;68.50;;;;;;4990127;28;90126;-51
2022/11/24 04:00:42;;;;;;;71.30;49.65;;;15.30;68.50;;;;;;4983357;28;91897;-50
2022/11/24 04:03:08;;;;;;;69.32;49.85;;;15.30;68.50;;;;;;4995732;28;90025;-47
2022/11/24 04:05:35;;;;;;;69.75;50.08;;;15.30;68.50;;;;;;4987675;28;90628;-48
2022/11/24 04:08:02;;;;;;;69.78;50.22;;;15.30;68.50;;;;;;4992816;28;89408;-52
2022/11/24 04:10:29;;;;;;;70.53;49.92;;;15.30;68.40;;;;;;4985131;28;91714;-49
2022/11/24 04:12:55;;;;;;;69.68;49.60;;;15.30;68.40;;;;;;4988927;28;94794;-51
2022/11/24 04:15:21;;;;;;;69.10;49.83;;;15.30;68.50;;;;;;4996850;28;89851;-53
2022/11/24 04:17:48;;;;;;;69.05;49.65;;;15.30;68.50;;;;;;5000000;27;89897;-50
2022/11/24 04:20:14;;;;;;;69.45;50.00;;;15.30;68.50;;;;;;4985236;28;89676;-50
2022/11/24 04:22:40;;;;;;;68.80;49.75;;;15.20;68.40;;;;;;4992525;28;89931;-51
2022/11/24 04:25:08;;;;;;;70.07;49.42;;;15.30;68.50;;;;;;4992026;28;89939;-52
2022/11/24 04:27:35;;;;;;;68.75;49.55;;;15.30;68.50;;;;;;4993760;28;89985;-51
2022/11/24 04:30:02;;;;;;;69.28;50.20;;;15.20;68.40;;;;;;4990315;28;89187;-50
2022/11/24 04:32:27;;;;;;;72.07;50.00;;;15.20;68.50;;;;;;4991981;28;91072;-53
2022/11/24 04:34:53;;;;;;;69.32;49.65;;;15.20;68.40;;;;;;4990587;28;90566;-52
2022/11/24 04:37:19;;;;;;;69.45;49.67;;;15.20;68.50;;;;;;4992857;28;91159;-52
2022/11/24 04:39:45;;;;;;;69.32;49.67;;;15.20;68.40;;;;;;4994263;27;89655;-50
2022/11/24 04:42:11;;;;;;;68.60;49.63;;;15.20;68.40;;;;;;4990157;28;91034;-52
2022/11/24 04:44:37;;;;;;;70.40;50.13;;;15.20;68.60;;;;;;4990187;28;95009;-53
2022/11/24 04:47:03;;;;;;;71.25;49.78;;;15.20;68.40;;;;;;4994597;27;89729;-48
2022/11/24 04:49:29;;;;;;;69.88;49.53;;;15.20;68.40;;;;;;4992058;28;93882;-49
2022/11/24 04:51:54;;;;;;;69.03;49.78;;;15.20;68.40;;;;;;4985851;27;90483;-50
2022/11/24 04:54:20;;;;;;;68.90;49.47;;;15.20;68.50;;;;;;4991578;28;90957;-50
2022/11/24 04:56:50;;;;;;;69.15;49.75;;;15.20;68.40;;;;;;4989656;28;91339;-47
2022/11/24 04:59:17;;;;;;;68.63;49.72;;;15.20;68.50;;;;;;4985537;28;89735;-52
2022/11/24 05:01:44;;;;;;;69.03;50.00;;;15.20;68.50;;;;;;4984235;28;90975;-52
2022/11/24 05:04:11;;;;;;;70.15;49.67;;;15.20;68.60;;;;;;4988445;28;89842;-47
2022/11/24 05:06:37;;;;;;;68.68;49.50;;;15.10;68.50;;;;;;4993990;28;90106;-51
2022/11/24 05:09:04;;;;;;;69.38;49.58;;;15.10;68.60;;;;;;4986017;28;92262;-54
2022/11/24 05:11:29;;;;;;;69.30;49.97;;;15.10;68.70;;;;;;4982142;28;92124;-52
2022/11/24 05:13:55;;;;;;;68.18;49.55;;;15.10;68.60;;;;;;4996196;27;89846;-51
2022/11/24 05:16:21;;;;;;;69.47;49.90;;;15.10;68.60;;;;;;5001708;28;89947;-48
2022/11/24 05:18:47;;;;;;;68.68;49.83;;;15.10;68.60;;;;;;4983740;28;89143;-50
2022/11/24 05:21:12;;;;;;;69.35;49.50;;;15.10;68.70;;;;;;4985510;28;92678;-51
2022/11/24 05:23:38;;;;;;;69.15;49.90;;;15.10;68.70;;;;;;4986158;28;90019;-51
2022/11/24 05:26:04;;;;;;;69.82;50.03;;;15.10;68.80;;;;;;4994595;28;92405;-53
2022/11/24 05:28:30;;;;;;;70.70;49.70;;;15.00;68.80;;;;;;4990824;28;90093;-52
2022/11/24 05:31:00;;;;;;;70.40;49.95;;;15.10;68.90;;;;;;4986607;28;90299;-52
2022/11/24 05:33:27;;;;;;;71.32;49.83;;;15.10;68.70;;;;;;4984833;28;89902;-48
2022/11/24 05:35:53;;;;;;;70.43;49.83;;;15.10;68.80;;;;;;4984003;28;91320;-53
2022/11/24 05:38:21;;;;;;;69.15;50.40;;;15.00;68.70;;;;;;4980319;28;89615;-51
2022/11/24 05:40:47;;;;;;;68.90;49.25;;;15.00;68.70;;;;;;4984651;28;90569;-48
2022/11/24 05:43:15;;;;;;;71.50;49.75;;;15.00;68.70;;;;;;4982346;28;89679;-49
2022/11/24 05:45:41;;;;;;;73.95;49.88;;;15.00;68.80;;;;;;4984592;28;92297;-52
2022/11/24 05:48:10;;;;;;;71.63;49.90;;;15.00;68.70;;;;;;4990485;28;89914;-49
2022/11/24 05:50:35;;;;;;;71.28;49.63;;;15.00;68.80;;;;;;4986454;28;95058;-53
2022/11/24 05:53:07;;;;;;;74.40;50.22;;;15.00;68.80;;;;;;4985277;28;90975;-51
2022/11/24 05:55:34;;;;;;;70.68;50.10;;;15.00;68.70;;;;;;4986930;28;90466;-48
2022/11/24 05:58:01;;;;;;;70.63;49.75;;;15.00;68.80;;;;;;4981916;28;90109;-50
2022/11/24 06:00:28;;;;;;;71.15;49.55;;;15.00;68.80;;;;;;4987702;28;89955;-48
2022/11/24 06:02:54;;;;;;;70.50;50.05;;;15.00;68.80;;;;;;4975202;28;89813;-53
2022/11/24 06:05:19;;;;;;;71.65;49.75;;;15.00;68.80;;;;;;4982633;28;90257;-49
2022/11/24 06:07:45;;;;;;;70.40;50.22;;;15.00;68.90;;;;;;4983762;27;89160;-48
2022/11/24 06:10:10;;;;;;;73.13;49.70;;;15.00;69.00;;;;;;4990575;28;89745;-49
2022/11/24 06:12:36;;;;;;;72.32;49.72;;;15.00;69.10;;;;;;4981213;28;91157;-50
2022/11/24 06:15:02;;;;;;;79.15;50.33;;;15.00;69.40;;;;;;4984312;28;95499;-51
2022/11/24 06:17:28;;;;;;;74.70;50.08;;;15.00;69.60;;;;;;4990344;28;90195;-49
2022/11/24 06:19:54;;;;;;;74.47;50.35;;;15.00;70.90;;;;;;4993817;28;92137;-50
2022/11/24 06:22:19;;;;;;;71.97;50.45;;;15.00;71.50;;;;;;4983362;28;90236;-49
2022/11/24 06:24:45;;;;;;;76.00;50.70;;;15.10;71.90;;;;;;4991668;28;89596;-48
2022/11/24 06:27:12;;;;;;;79.95;50.22;;;15.00;71.60;;;;;;4984348;28;93355;-51
2022/11/24 06:29:38;;;;;;;75.57;50.38;;;15.10;71.70;;;;;;4985802;28;90187;-54
2022/11/24 06:32:04;;;;;;;70.60;49.92;;;15.00;71.70;;;;;;4978581;28;90446;-50
2022/11/24 06:34:30;;;;;;;74.55;50.53;;;15.00;71.80;;;;;;4983923;28;92601;-53
2022/11/24 06:36:55;;;;;;;75.20;50.25;;;15.00;72.00;;;;;;4982474;27;89797;-53
2022/11/24 06:39:21;;;;;;;71.20;49.90;;;15.00;71.90;;;;;;4984919;28;90923;-55
2022/11/24 06:41:49;;;;;;;73.13;49.67;;;14.90;71.90;;;;;;4988394;28;89928;-51
2022/11/24 06:44:14;;;;;;;73.82;50.45;;;14.90;71.90;;;;;;4983094;27;90100;-51
2022/11/24 06:46:40;;;;;;;78.82;50.17;;;14.90;72.00;;;;;;4987824;28;89969;-49
2022/11/24 06:49:06;;;;;;;72.53;49.75;;;14.90;72.10;;;;;;4984752;28;91715;-48
2022/11/24 06:51:31;;;;;;;74.82;50.20;;;14.90;72.10;;;;;;4986290;28;91004;-53
2022/11/24 06:53:57;;;;;;;74.22;50.78;;;14.80;72.20;;;;;;4986825;28;89845;-53
2022/11/24 06:56:23;;;;;;;76.90;50.92;;;14.80;72.30;;;;;;4985102;28;89272;-49
2022/11/24 06:58:51;;;;;;;73.53;50.55;;;14.80;72.40;;;;;;4975691;27;94797;-52
2022/11/24 07:01:17;;;;;;;80.05;51.72;;;14.80;72.60;;;;;;4980762;28;89919;-53
2022/11/24 07:03:44;;;;;;;75.40;51.08;;;14.80;72.80;;;;;;4987827;27;92984;-51
2022/11/24 07:06:09;;;;;;;76.75;50.78;;;14.80;73.20;;;;;;4990505;28;89864;-49
2022/11/24 07:08:35;;;;;;;73.63;50.90;;;14.80;73.40;;;;;;4979525;28;92191;-51
2022/11/24 07:11:09;;;;;;;81.28;51.30;;;14.80;73.30;;;;;;4965446;28;91364;-51
2022/11/24 07:13:34;;;;;;;77.00;51.30;;;14.90;73.60;;;;;;4972753;28;92643;-50
2022/11/24 07:16:10;;;;;;;77.40;51.25;;;14.90;73.50;;;;;;4989190;28;89705;-53
2022/11/24 07:18:36;;;;;;;72.03;50.70;;;14.90;73.20;;;;;;4978094;28;91344;-52
2022/11/24 07:21:03;;;;;;;75.97;51.28;;;14.90;73.00;;;;;;4990163;28;89650;-50
2022/11/24 07:23:29;;;;;;;78.03;50.97;;;14.90;72.80;;;;;;4990050;28;90235;-53
2022/11/24 07:25:55;;;;;;;77.55;51.28;;;14.90;72.80;;;;;;4978506;28;90226;-48
2022/11/24 07:28:21;;;;;;;82.68;51.75;;;14.90;72.80;;;;;;4975260;28;93335;-53
2022/11/24 07:30:46;;;;;;;88.15;51.50;;;14.90;73.00;;;;;;4959851;28;91798;-57
2022/11/24 07:33:12;;;;;;;76.53;50.92;;;14.90;73.30;;;;;;4976884;28;90914;-52
2022/11/24 07:35:38;;;;;;;78.43;51.28;;;14.90;73.70;;;;;;4986553;28;89994;-56
2022/11/24 07:38:03;;;;;;;75.18;51.50;;;15.00;74.00;;;;;;4968638;28;90696;-54
2022/11/24 07:40:29;;;;;;;79.43;50.65;;;15.00;73.90;;;;;;4976515;28;91037;-51
2022/11/24 07:42:55;;;;;;;73.63;50.63;;;15.00;73.70;;;;;;4979814;28;89946;-55
2022/11/24 07:45:20;;;;;;;75.55;51.08;;;15.00;73.60;;;;;;4988899;28;89195;-51
2022/11/24 07:47:46;;;;;;;74.47;50.67;;;14.90;73.30;;;;;;4978588;28;89976;-53
2022/11/24 07:50:12;;;;;;;85.32;51.08;;;14.90;73.00;;;;;;4981685;28;89913;-53
2022/11/24 07:52:38;;;;;;;74.32;51.25;;;14.90;72.90;;;;;;4975974;27;94324;-52
2022/11/24 07:55:04;;;;;;;73.20;51.15;;;14.90;72.80;;;;;;4980380;28;91821;-55
2022/11/24 07:57:30;;;;;;;73.15;50.75;;;14.90;72.50;;;;;;4985998;28;92150;-52
2022/11/24 07:59:56;;;;;;;74.68;51.30;;;14.90;72.20;;;;;;4982056;28;91974;-54
2022/11/24 08:02:22;;;;;;;77.05;50.45;;;14.90;72.10;;;;;;4973582;28;89951;-54
2022/11/24 08:04:47;;;;;;;75.95;50.88;;;14.90;72.00;;;;;;4986154;28;91170;-54
2022/11/24 08:07:13;;;;;;;74.57;50.90;;;14.90;72.00;;;;;;4982092;28;92666;-54
2022/11/24 08:09:39;;;;;;;79.72;51.05;;;14.90;71.90;;;;;;4976131;28;91611;-53
2022/11/24 08:12:05;;;;;;;76.05;51.33;;;14.90;71.70;;;;;;4989258;27;90160;-54
2022/11/24 08:14:30;;;;;;;74.68;50.65;;;14.90;71.50;;;;;;4987650;28;89564;-55
2022/11/24 08:16:57;;;;;;;75.63;50.47;;;14.90;71.40;;;;;;4988676;28;91276;-53
2022/11/24 08:19:22;;;;;;;74.40;50.58;;;14.80;71.20;;;;;;4983793;28;91536;-55
2022/11/24 08:21:48;;;;;;;78.45;51.17;;;14.80;71.20;;;;;;4983809;28;89814;-54
2022/11/24 08:24:15;;;;;;;74.85;51.03;;;14.80;71.20;;;;;;4979334;28;91149;-51
2022/11/24 08:26:41;;;;;;;71.40;50.78;;;14.80;71.10;;;;;;4983593;27;90203;-51
2022/11/24 08:29:06;;;;;;;80.10;51.00;;;14.90;71.50;;;;;;4991632;28;90657;-48
2022/11/24 08:31:33;;;;;;;77.45;51.58;;;14.90;71.10;;;;;;4985904;28;89592;-50
2022/11/24 08:34:00;;;;;;;76.45;51.40;;;14.90;70.70;;;;;;4985138;28;94931;-51
2022/11/24 08:36:26;;;;;;;75.38;51.97;;;15.00;71.30;;;;;;4993711;28;90355;-52
2022/11/24 08:38:57;;;;;;;77.68;52.60;;;15.20;70.80;;;;;;4993637;28;90350;-50
2022/11/24 08:41:24;;;;;;;76.53;52.73;;;15.30;70.40;;;;;;4984487;28;90788;-52
2022/11/24 08:43:49;;;;;;;81.38;51.95;;;15.40;69.80;;;;;;4985719;28;90933;-54
2022/11/24 08:46:17;;;;;;;80.18;53.03;;;15.50;69.80;;;;;;4985899;28;89853;-52
2022/11/24 08:48:53;;;;;;;75.63;52.03;;;15.50;69.80;;;;;;4991595;28;90014;-55
2022/11/24 08:51:21;;;;;;;79.72;52.45;;;15.70;69.70;;;;;;4980007;28;91685;-54
2022/11/24 08:53:47;;;;;;;76.05;52.35;;;15.70;69.30;;;;;;4986241;28;89804;-52
2022/11/24 08:56:13;;;;;;;75.72;51.38;;;15.80;69.30;;;;;;4984445;28;90817;-47
2022/11/24 08:58:40;;;;;;;77.85;51.90;;;15.80;69.30;;;;;;4985331;28;90472;-47
2022/11/24 09:01:14;;;;;;;73.90;51.75;;;15.80;69.60;;;;;;4962780;28;93313;-49
2022/11/24 09:03:41;;;;;;;76.00;52.15;;;15.70;69.60;;;;;;4966873;28;91170;-51
2022/11/24 09:06:07;;;;;;;77.07;52.85;;;15.80;70.00;;;;;;4980627;28;92335;-49
2022/11/24 09:08:34;;;;;;;78.97;52.75;;;15.80;70.00;;;;;;4985226;27;90348;-53
2022/11/24 09:11:07;;;;;;;74.60;52.13;;;15.80;70.00;;;;;;4970016;28;92370;-49
2022/11/24 09:13:34;;;;;;;75.10;52.08;;;15.80;69.30;;;;;;4984409;28;90828;-52
2022/11/24 09:16:04;;;;;;;74.15;51.70;;;15.70;69.20;;;;;;4983046;28;90611;-50
2022/11/24 09:18:30;;;;;;;75.03;51.28;;;15.80;69.00;;;;;;4978520;28;90194;-51
2022/11/24 09:21:09;;;;;;;73.82;51.40;;;15.90;68.90;;;;;;4987225;28;91375;-53
2022/11/24 09:23:35;;;;;;;76.20;52.30;;;15.90;68.80;;;;;;4987703;28;89287;-47
2022/11/24 09:26:13;;;;;;;75.43;51.72;;;16.00;68.90;;;;;;4982681;27;90170;-49
2022/11/24 09:28:39;;;;;;;76.38;51.95;;;15.90;68.80;;;;;;4976692;28;90547;-51
2022/11/24 09:31:09;;;;;;;73.28;51.42;;;16.00;68.70;;;;;;4985888;28;92040;-51
2022/11/24 09:33:35;;;;;;;74.80;51.67;;;16.00;68.90;;;;;;4984591;28;91645;-55
2022/11/24 09:36:02;;;;;;;76.75;51.70;;;16.00;68.80;;;;;;4977376;28;90028;-50
2022/11/24 09:38:27;;;;;;;79.25;52.63;;;16.00;68.60;;;;;;4982971;28;90142;-50
2022/11/24 09:40:53;;;;;;;75.85;51.78;;;16.00;68.30;;;;;;4980976;28;91727;-52
2022/11/24 09:44:02;;;;;;;76.72;52.25;;;16.20;68.20;;;;;;4981400;28;90781;-49
2022/11/24 09:46:34;;;;;;;73.80;51.83;;;16.30;67.50;;;;;;4993906;28;90639;-51
2022/11/24 09:49:02;;;;;;;75.60;52.05;;;16.30;67.60;;;;;;4979936;28;91278;-52
2022/11/24 09:51:31;;;;;;;76.28;52.78;;;16.50;67.10;;;;;;4976950;28;90574;-54
2022/11/24 09:54:07;;;;;;;78.20;51.85;;;16.50;66.70;;;;;;4981116;28;89640;-53
2022/11/24 09:56:35;;;;;;;74.38;51.92;;;16.60;66.70;;;;;;4987065;28;91367;-51
2022/11/24 09:59:19;;;;;;;76.22;52.55;;;16.70;66.50;;;;;;4978253;27;91837;-52
2022/11/24 10:01:46;;;;;;;73.20;51.50;;;16.70;66.70;;;;;;4983559;28;93544;-54
2022/11/24 10:04:17;;;;;;;74.47;51.65;;;16.70;66.70;;;;;;4986559;28;90353;-52
2022/11/24 10:06:47;;;;;;;76.07;52.07;;;16.70;66.80;;;;;;4979434;28;90374;-53
2022/11/24 10:09:33;;;;;;;77.60;52.72;;;16.60;66.90;;;;;;4988208;28;89767;-51
2022/11/24 10:12:18;;;;;;;75.28;52.10;;;16.60;67.00;;;;;;4990400;28;89689;-49
2022/11/24 10:15:11;;;;;;;76.55;52.35;;;16.70;66.90;;;;;;4988423;27;90447;-51
2022/11/24 10:18:01;;;;;;;77.95;52.13;;;16.80;66.20;;;;;;4987438;28;90024;-50
2022/11/24 10:20:33;;;;;;;75.45;51.60;;;16.90;65.90;;;;;;4981193;28;90262;-51
2022/11/24 10:23:31;;;;;;;76.45;52.42;;;16.80;66.10;;;;;;4985668;28;90799;-50
2022/11/24 10:26:04;;;;;;;76.18;52.03;;;16.90;66.10;;;;;;4988514;28;90788;-46
2022/11/24 10:28:46;;;;;;;75.50;52.13;;;16.90;66.00;;;;;;4983728;28;94080;-49
2022/11/24 10:31:35;;;;;;;77.20;52.03;;;17.00;65.70;;;;;;4984609;28;92605;-57
2022/11/24 10:34:12;;;;;;;74.60;52.00;;;17.00;65.60;;;;;;4976524;27;90513;-53
2022/11/24 10:36:57;;;;;;;77.75;52.13;;;17.00;65.50;;;;;;4982148;28;91383;-52
2022/11/24 10:39:32;;;;;;;75.53;52.30;;;17.10;65.40;;;;;;4971733;28;91897;-55
2022/11/24 10:42:01;;;;;;;76.88;51.88;;;17.10;65.50;;;;;;4983351;28;89459;-54
2022/11/24 10:44:27;;;;;;;77.80;51.92;;;17.10;65.40;;;;;;4983645;28;90783;-51
2022/11/24 10:46:53;;;;;;;75.60;51.90;;;17.20;65.40;;;;;;4973746;28;95826;-52
2022/11/24 10:49:28;;;;;;;76.15;52.28;;;17.20;65.40;;;;;;4979834;28;91391;-52
2022/11/24 10:52:21;;;;;;;77.07;52.17;;;17.20;65.40;;;;;;4984325;28;91135;-51
2022/11/24 10:55:01;;;;;;;77.38;52.03;;;17.30;65.00;;;;;;4982235;28;89979;-53
2022/11/24 10:57:38;;;;;;;76.97;51.78;;;17.30;65.20;;;;;;4990303;28;90193;-49
2022/11/24 11:00:31;;;;;;;75.57;52.05;;;17.30;65.10;;;;;;4986376;28;90076;-53
2022/11/24 11:03:33;;;;;;;78.00;51.70;;;17.20;65.20;;;;;;4986912;28;90713;-53
2022/11/24 11:06:13;;;;;;;77.97;52.03;;;17.20;65.30;;;;;;5002260;28;89751;-51
2022/11/24 11:08:39;;;;;;;74.60;51.50;;;17.20;65.40;;;;;;4984340;28;90107;-50
2022/11/24 11:11:19;;;;;;;77.65;52.10;;;17.20;65.50;;;;;;4979130;28;90887;-48
2022/11/24 11:14:05;;;;;;;78.63;51.37;;;17.20;65.60;;;;;;4983464;28;90718;-53
2022/11/24 11:16:45;;;;;;;80.10;52.13;;;17.30;65.80;;;;;;4976794;28;92320;-52
2022/11/24 11:19:33;;;;;;;79.07;51.95;;;17.50;65.10;;;;;;4979400;28;92010;-53
2022/11/24 11:22:11;;;;;;;78.72;52.15;;;17.90;64.00;;;;;;4975926;28;90360;-52
2022/11/24 11:24:41;;;;;;;76.55;51.85;;;18.00;63.30;;;;;;4972406;28;91249;-54
2022/11/24 11:27:19;;;;;;;76.65;51.92;;;18.20;62.80;;;;;;4982864;28;90018;-50
2022/11/24 11:29:46;;;;;;;76.40;52.15;;;18.20;62.50;;;;;;4978561;28;91188;-50
2022/11/24 11:32:26;;;;;;;80.22;52.15;;;18.30;62.40;;;;;;4982144;28;95731;-51
2022/11/24 11:34:54;;;;;;;79.70;52.13;;;18.40;62.20;;;;;;4973813;28;90460;-52
2022/11/24 11:37:26;;;;;;;80.20;52.13;;;18.10;62.60;;;;;;4976177;27;93756;-49
2022/11/24 11:39:55;;;;;;;81.00;52.70;;;17.80;63.50;;;;;;4975303;28;90303;-49
2022/11/24 11:42:33;;;;;;;83.40;52.90;;;17.60;64.40;;;;;;4986479;28;91737;-52
2022/11/24 11:45:05;;;;;;;93.47;54.28;;;17.60;64.90;;;;;;4976679;27;90857;-51
2022/11/24 11:47:46;;;;;;;87.97;53.97;;;17.50;65.50;;;;;;4979800;28;90842;-52
2022/11/24 11:50:14;;;;;;;96.95;54.20;;;17.50;65.70;;;;;;4989273;28;92293;-52
2022/11/24 11:52:56;;;;;;;92.82;54.47;;;17.60;65.90;;;;;;4984113;28;90182;-52
2022/11/24 11:55:30;;;;;;;92.50;55.75;;;17.60;66.10;;;;;;4986664;28;91800;-53
2022/11/24 11:58:10;;;;;;;92.28;54.88;;;17.60;66.10;;;;;;4988093;28;90087;-53
2022/11/24 12:00:43;;;;;;;95.40;55.60;;;17.60;66.10;;;;;;4991265;28;94154;-47
2022/11/24 12:03:32;;;;;;;88.07;54.75;;;17.50;66.30;;;;;;4987110;27;90206;-50
2022/11/24 12:06:14;;;;;;;95.63;55.30;;;17.50;66.70;;;;;;4987760;28;90149;-52
2022/11/24 12:09:12;;;;;;;90.30;54.60;;;17.60;66.50;;;;;;4978997;28;91526;-50
2022/11/24 12:12:03;;;;;;;92.97;54.50;;;17.50;66.40;;;;;;4986769;28;89632;-51
2022/11/24 12:14:56;;;;;;;87.50;54.50;;;17.60;66.50;;;;;;4982772;28;94075;-50
2022/11/24 12:17:36;;;;;;;92.13;54.97;;;17.50;66.60;;;;;;4986124;28;91101;-57
2022/11/24 12:20:23;;;;;;;86.32;54.15;;;17.60;66.40;;;;;;4987776;28;90994;-58
2022/11/24 12:23:09;;;;;;;90.90;55.33;;;17.60;66.40;;;;;;4989493;28;90529;-55
2022/11/24 12:26:00;;;;;;;88.95;55.08;;;17.60;66.20;;;;;;4985777;28;89905;-52
2022/11/24 12:28:35;;;;;;;87.45;55.03;;;17.60;66.40;;;;;;4981695;28;92250;-58
2022/11/24 12:31:05;;;;;;;88.50;55.53;;;17.60;66.60;;;;;;4976226;28;90134;-53
2022/11/24 12:33:50;;;;;;;85.38;55.95;;;17.50;66.90;;;;;;4976448;28;91409;-53
2022/11/24 12:36:46;;;;;;;88.43;56.60;;;17.50;66.90;;;;;;4988015;28;91621;-48
2022/11/24 12:39:30;;;;;;;88.47;56.20;;;17.50;67.00;;;;;;4983549;28;90964;-52
2022/11/24 12:42:38;;;;;;;90.18;56.20;;;17.50;67.10;;;;;;4989530;28;90148;-49